RUM3415 SBGR-SBSG
Flight info
| Callsign | RUM3415 |
|---|---|
| Flight time | 2h 49m |
| Altitude | 35000 |
| Route | AMVUL6A VUMEV UZ14 ENVOG UZ1 LODOT UZ72 TOGUN DCT |
| Aircraft | A320/M-SDE3FGHIRWY/LB1 |
Departure
| Time | 2026-05-03 21:02 |
|---|---|
| Airport | São Paulo/Guarulhos–Governor André Franco Montoro International Airport (SBGR) |
Arrival
| Time | 2026-05-03 23:52 |
|---|---|
| Airport | Rio Grande do Norte/São Gonçalo do Amarante–Governador Aluízio Alves International Airport (SBSG) |
| Time | Latitude | Longitude | Altitude | Speed | Heading |
|---|---|---|---|---|---|
| 2026-05-03 20:39 | -23.42816 | -46.48551 | 2461 ft | 0 kts | 275° |
| 2026-05-03 20:55 | -23.42818 | -46.48528 | 2463 ft | 4 kts | 269° |
| 2026-05-03 20:55 | -23.42815 | -46.48500 | 2461 ft | 4 kts | 253° |
| 2026-05-03 20:56 | -23.42804 | -46.48477 | 2466 ft | 4 kts | 206° |
| 2026-05-03 20:56 | -23.42792 | -46.48473 | 2461 ft | 1 kts | 181° |
| 2026-05-03 20:56 | -23.42791 | -46.48473 | 2461 ft | 0 kts | 181° |
| 2026-05-03 20:58 | -23.42792 | -46.48473 | 2461 ft | 2 kts | 181° |
| 2026-05-03 20:58 | -23.42854 | -46.48474 | 2465 ft | 14 kts | 181° |
| 2026-05-03 20:59 | -23.42965 | -46.48452 | 2462 ft | 19 kts | 175° |
| 2026-05-03 20:59 | -23.43103 | -46.48426 | 2463 ft | 20 kts | 162° |
| 2026-05-03 20:59 | -23.43219 | -46.48388 | 2463 ft | 15 kts | 164° |
| 2026-05-03 20:59 | -23.43324 | -46.48354 | 2465 ft | 18 kts | 161° |
| 2026-05-03 21:00 | -23.43412 | -46.48295 | 2462 ft | 13 kts | 88° |
| 2026-05-03 21:00 | -23.43408 | -46.48269 | 2460 ft | 0 kts | 77° |
| 2026-05-03 21:01 | -23.43377 | -46.48151 | 2463 ft | 47 kts | 74° |
| 2026-05-03 21:02 | -23.43221 | -46.47580 | 2464 ft | 108 kts | 73° |
| 2026-05-03 21:02 | -23.42958 | -46.46614 | 2464 ft | 156 kts | 73° |
| 2026-05-03 21:02 | -23.42623 | -46.45379 | 2750 ft | 174 kts | 76° |
| 2026-05-03 21:02 | -23.42285 | -46.44116 | 3454 ft | 174 kts | 77° |
| 2026-05-03 21:03 | -23.41916 | -46.42866 | 4130 ft | 174 kts | 76° |
| 2026-05-03 21:03 | -23.41531 | -46.41565 | 4488 ft | 190 kts | 75° |
| 2026-05-03 21:03 | -23.41107 | -46.40116 | 4707 ft | 212 kts | 75° |
| 2026-05-03 21:03 | -23.40649 | -46.38538 | 4975 ft | 231 kts | 75° |
| 2026-05-03 21:04 | -23.40133 | -46.36758 | 5263 ft | 255 kts | 73° |
| 2026-05-03 21:04 | -23.39338 | -46.35008 | 5810 ft | 266 kts | 61° |
| 2026-05-03 21:04 | -23.38345 | -46.33251 | 6563 ft | 270 kts | 57° |
| 2026-05-03 21:04 | -23.37335 | -46.31545 | 7279 ft | 274 kts | 56° |
| 2026-05-03 21:05 | -23.36283 | -46.29786 | 7928 ft | 281 kts | 56° |
| 2026-05-03 21:05 | -23.35211 | -46.27980 | 8559 ft | 287 kts | 56° |
| 2026-05-03 21:05 | -23.34118 | -46.26124 | 9182 ft | 295 kts | 56° |
| 2026-05-03 21:05 | -23.33006 | -46.24222 | 9827 ft | 301 kts | 56° |
| 2026-05-03 21:06 | -23.31874 | -46.22280 | 10436 ft | 308 kts | 56° |
| 2026-05-03 21:06 | -23.30687 | -46.20240 | 10612 ft | 330 kts | 56° |
| 2026-05-03 21:06 | -23.29420 | -46.18061 | 10824 ft | 349 kts | 56° |
| 2026-05-03 21:06 | -23.28110 | -46.15804 | 11361 ft | 355 kts | 57° |
| 2026-05-03 21:07 | -23.26786 | -46.13518 | 11969 ft | 359 kts | 57° |
| 2026-05-03 21:07 | -23.25449 | -46.11208 | 12578 ft | 363 kts | 57° |
| 2026-05-03 21:07 | -23.24091 | -46.08866 | 13167 ft | 368 kts | 57° |
| 2026-05-03 21:07 | -23.22649 | -46.06595 | 13737 ft | 371 kts | 49° |
| 2026-05-03 21:08 | -23.20805 | -46.04620 | 14263 ft | 374 kts | 37° |
| 2026-05-03 21:08 | -23.18616 | -46.03087 | 14732 ft | 376 kts | 24° |
| 2026-05-03 21:08 | -23.16184 | -46.02040 | 15203 ft | 378 kts | 16° |
| 2026-05-03 21:08 | -23.13683 | -46.01097 | 15677 ft | 382 kts | 14° |
| 2026-05-03 21:09 | -23.11090 | -46.00466 | 16130 ft | 382 kts | 3° |
| 2026-05-03 21:09 | -23.08434 | -46.00141 | 16595 ft | 386 kts | 2° |
| 2026-05-03 21:09 | -23.05746 | -45.99786 | 17061 ft | 392 kts | 7° |
| 2026-05-03 21:09 | -23.03137 | -45.98825 | 17495 ft | 404 kts | 25° |
| 2026-05-03 21:10 | -23.00688 | -45.97277 | 17923 ft | 410 kts | 28° |
| 2026-05-03 21:10 | -22.98226 | -45.95665 | 18369 ft | 414 kts | 28° |
| 2026-05-03 21:10 | -22.95752 | -45.94029 | 18771 ft | 418 kts | 28° |
| 2026-05-03 21:10 | -22.93271 | -45.92384 | 19161 ft | 421 kts | 28° |
| 2026-05-03 21:11 | -22.90748 | -45.90716 | 19584 ft | 424 kts | 27° |
| 2026-05-03 21:11 | -22.88221 | -45.89054 | 20042 ft | 426 kts | 27° |
| 2026-05-03 21:11 | -22.85675 | -45.87387 | 20464 ft | 428 kts | 27° |
| 2026-05-03 21:11 | -22.83110 | -45.85712 | 20890 ft | 432 kts | 27° |
| 2026-05-03 21:12 | -22.80527 | -45.84027 | 21323 ft | 434 kts | 27° |
| 2026-05-03 21:12 | -22.77935 | -45.82334 | 21780 ft | 436 kts | 26° |
| 2026-05-03 21:12 | -22.75332 | -45.80635 | 22182 ft | 438 kts | 26° |
| 2026-05-03 21:12 | -22.72711 | -45.78922 | 22617 ft | 441 kts | 26° |
| 2026-05-03 21:13 | -22.70078 | -45.77203 | 23031 ft | 443 kts | 26° |
| 2026-05-03 21:13 | -22.67439 | -45.75482 | 23453 ft | 444 kts | 26° |
| 2026-05-03 21:13 | -22.64786 | -45.73752 | 23827 ft | 446 kts | 26° |
| 2026-05-03 21:13 | -22.62155 | -45.72037 | 24154 ft | 449 kts | 26° |
| 2026-05-03 21:14 | -22.59475 | -45.70290 | 24481 ft | 451 kts | 26° |
| 2026-05-03 21:14 | -22.56769 | -45.68527 | 24827 ft | 452 kts | 26° |
| 2026-05-03 21:14 | -22.54141 | -45.66806 | 25802 ft | 432 kts | 25° |
| 2026-05-03 21:14 | -22.51633 | -45.65158 | 26847 ft | 411 kts | 25° |
| 2026-05-03 21:15 | -22.49235 | -45.63587 | 27741 ft | 398 kts | 24° |
| 2026-05-03 21:15 | -22.46873 | -45.62051 | 28196 ft | 396 kts | 23° |
| 2026-05-03 21:15 | -22.44507 | -45.60525 | 28567 ft | 396 kts | 23° |
| 2026-05-03 21:15 | -22.42127 | -45.58994 | 28891 ft | 399 kts | 23° |
| 2026-05-03 21:16 | -22.39737 | -45.57454 | 29196 ft | 400 kts | 23° |
| 2026-05-03 21:16 | -22.37340 | -45.55904 | 29519 ft | 402 kts | 23° |
| 2026-05-03 21:16 | -22.34935 | -45.54348 | 29807 ft | 404 kts | 23° |
| 2026-05-03 21:16 | -22.32518 | -45.52781 | 30107 ft | 406 kts | 23° |
| 2026-05-03 21:17 | -22.30091 | -45.51205 | 30401 ft | 408 kts | 22° |
| 2026-05-03 21:17 | -22.28479 | -45.50159 | 30572 ft | 408 kts | 22° |
| 2026-05-03 21:17 | -22.25205 | -45.48039 | 30897 ft | 411 kts | 22° |
| 2026-05-03 21:17 | -22.22747 | -45.46448 | 31097 ft | 413 kts | 23° |
| 2026-05-03 21:18 | -22.20274 | -45.44845 | 31350 ft | 415 kts | 23° |
| 2026-05-03 21:18 | -22.17816 | -45.43254 | 31506 ft | 420 kts | 23° |
| 2026-05-03 21:18 | -22.15284 | -45.41617 | 31619 ft | 426 kts | 23° |
| 2026-05-03 21:18 | -22.12727 | -45.39966 | 31739 ft | 432 kts | 23° |
| 2026-05-03 21:19 | -22.10121 | -45.38284 | 31851 ft | 437 kts | 24° |
| 2026-05-03 21:19 | -22.07495 | -45.36588 | 31970 ft | 442 kts | 24° |
| 2026-05-03 21:19 | -22.04839 | -45.34870 | 32093 ft | 448 kts | 25° |
| 2026-05-03 21:19 | -22.02277 | -45.32888 | 32215 ft | 458 kts | 31° |
| 2026-05-03 21:20 | -21.99760 | -45.30756 | 32338 ft | 463 kts | 32° |
| 2026-05-03 21:20 | -21.98081 | -45.29331 | 32415 ft | 466 kts | 32° |
| 2026-05-03 21:20 | -21.94651 | -45.26423 | 32584 ft | 471 kts | 32° |
| 2026-05-03 21:20 | -21.92938 | -45.24974 | 32665 ft | 474 kts | 32° |
| 2026-05-03 21:21 | -21.90333 | -45.22778 | 32776 ft | 478 kts | 32° |
| 2026-05-03 21:21 | -21.87706 | -45.20570 | 32903 ft | 481 kts | 32° |
| 2026-05-03 21:21 | -21.84199 | -45.17621 | 33063 ft | 485 kts | 32° |
| 2026-05-03 21:21 | -21.82405 | -45.16111 | 33163 ft | 486 kts | 32° |
| 2026-05-03 21:22 | -21.79732 | -45.13859 | 33358 ft | 487 kts | 32° |
| 2026-05-03 21:22 | -21.77066 | -45.11612 | 33593 ft | 487 kts | 32° |
| 2026-05-03 21:22 | -21.74403 | -45.09365 | 33842 ft | 487 kts | 32° |
| 2026-05-03 21:22 | -21.71739 | -45.07117 | 34088 ft | 486 kts | 32° |
| 2026-05-03 21:23 | -21.69079 | -45.04876 | 34306 ft | 486 kts | 32° |
| 2026-05-03 21:23 | -21.66417 | -45.02640 | 34524 ft | 485 kts | 32° |
| 2026-05-03 21:23 | -21.63754 | -45.00409 | 34725 ft | 485 kts | 31° |
| 2026-05-03 21:23 | -21.61094 | -44.98181 | 34918 ft | 485 kts | 32° |
| 2026-05-03 21:24 | -21.58470 | -44.95984 | 35088 ft | 484 kts | 32° |
| 2026-05-03 21:24 | -21.55816 | -44.93761 | 35147 ft | 482 kts | 32° |
| 2026-05-03 21:24 | -21.50546 | -44.89347 | 35155 ft | 479 kts | 32° |
| 2026-05-03 21:25 | -21.45291 | -44.84949 | 35149 ft | 479 kts | 32° |
| 2026-05-03 21:25 | -21.40032 | -44.80553 | 35166 ft | 478 kts | 32° |
| 2026-05-03 21:26 | -21.34786 | -44.76175 | 35154 ft | 477 kts | 32° |
| 2026-05-03 21:26 | -21.29583 | -44.71823 | 35147 ft | 477 kts | 32° |
| 2026-05-03 21:27 | -21.24345 | -44.67460 | 35152 ft | 477 kts | 32° |
| 2026-05-03 21:27 | -21.19101 | -44.63103 | 35153 ft | 477 kts | 32° |
| 2026-05-03 21:28 | -21.13866 | -44.58735 | 35159 ft | 477 kts | 32° |
| 2026-05-03 21:28 | -21.08633 | -44.54378 | 35158 ft | 477 kts | 32° |
| 2026-05-03 21:29 | -21.03389 | -44.50013 | 35169 ft | 477 kts | 32° |
| 2026-05-03 21:29 | -20.98148 | -44.45655 | 35161 ft | 477 kts | 32° |
| 2026-05-03 21:30 | -20.92901 | -44.41311 | 35172 ft | 477 kts | 32° |
| 2026-05-03 21:30 | -20.87655 | -44.36971 | 35162 ft | 477 kts | 32° |
| 2026-05-03 21:31 | -20.82415 | -44.32628 | 35145 ft | 476 kts | 32° |
| 2026-05-03 21:31 | -20.77171 | -44.28288 | 35146 ft | 476 kts | 32° |
| 2026-05-03 21:32 | -20.71934 | -44.23957 | 35142 ft | 476 kts | 32° |
| 2026-05-03 21:32 | -20.66688 | -44.19632 | 35155 ft | 476 kts | 32° |
| 2026-05-03 21:33 | -20.61445 | -44.15305 | 35154 ft | 476 kts | 32° |
| 2026-05-03 21:33 | -20.56270 | -44.10952 | 35151 ft | 477 kts | 33° |
| 2026-05-03 21:34 | -20.51049 | -44.06525 | 35159 ft | 476 kts | 33° |
| 2026-05-03 21:34 | -20.45831 | -44.02185 | 35154 ft | 482 kts | 32° |
| 2026-05-03 21:35 | -20.40445 | -43.97816 | 35158 ft | 490 kts | 32° |
| 2026-05-03 21:35 | -20.34974 | -43.93376 | 35156 ft | 497 kts | 32° |
| 2026-05-03 21:36 | -20.29458 | -43.88873 | 35142 ft | 502 kts | 32° |
| 2026-05-03 21:36 | -20.23919 | -43.84337 | 35144 ft | 502 kts | 32° |
| 2026-05-03 21:37 | -20.18374 | -43.79800 | 35144 ft | 502 kts | 32° |
| 2026-05-03 21:37 | -20.12858 | -43.75307 | 35146 ft | 502 kts | 32° |
| 2026-05-03 21:38 | -20.07301 | -43.70793 | 35146 ft | 502 kts | 32° |
| 2026-05-03 21:38 | -20.01752 | -43.66286 | 35151 ft | 502 kts | 32° |
| 2026-05-03 21:39 | -19.96209 | -43.61778 | 35153 ft | 502 kts | 32° |
| 2026-05-03 21:39 | -19.90661 | -43.57266 | 35136 ft | 502 kts | 32° |
| 2026-05-03 21:40 | -19.85114 | -43.52756 | 35133 ft | 502 kts | 32° |
| 2026-05-03 21:40 | -19.79566 | -43.48251 | 35139 ft | 502 kts | 32° |
| 2026-05-03 21:41 | -19.74022 | -43.43752 | 35139 ft | 502 kts | 32° |
| 2026-05-03 21:41 | -19.68473 | -43.39239 | 35134 ft | 502 kts | 33° |
| 2026-05-03 21:42 | -19.62928 | -43.34743 | 35143 ft | 502 kts | 32° |
| 2026-05-03 21:42 | -19.57418 | -43.30280 | 35145 ft | 501 kts | 32° |
| 2026-05-03 21:43 | -19.51886 | -43.25790 | 35139 ft | 501 kts | 33° |
| 2026-05-03 21:43 | -19.46350 | -43.21307 | 35124 ft | 501 kts | 33° |
| 2026-05-03 21:44 | -19.40806 | -43.16841 | 35129 ft | 501 kts | 33° |
| 2026-05-03 21:44 | -19.35258 | -43.12363 | 35122 ft | 501 kts | 33° |
| 2026-05-03 21:45 | -19.29718 | -43.07883 | 35110 ft | 500 kts | 33° |
| 2026-05-03 21:45 | -19.24173 | -43.03429 | 35115 ft | 500 kts | 33° |
| 2026-05-03 21:46 | -19.18672 | -42.99006 | 35115 ft | 500 kts | 33° |
| 2026-05-03 21:46 | -19.13134 | -42.94544 | 35112 ft | 500 kts | 33° |
| 2026-05-03 21:47 | -19.07607 | -42.90091 | 35110 ft | 499 kts | 33° |
| 2026-05-03 21:47 | -19.02080 | -42.85651 | 35109 ft | 499 kts | 33° |
| 2026-05-03 21:48 | -18.96542 | -42.81215 | 35112 ft | 499 kts | 33° |
| 2026-05-03 21:48 | -18.91009 | -42.76777 | 35095 ft | 499 kts | 33° |
| 2026-05-03 21:49 | -18.85476 | -42.72336 | 35105 ft | 499 kts | 33° |
| 2026-05-03 21:49 | -18.79965 | -42.67932 | 35110 ft | 499 kts | 33° |
| 2026-05-03 21:50 | -18.74434 | -42.63513 | 35112 ft | 499 kts | 33° |
| 2026-05-03 21:50 | -18.68903 | -42.59096 | 35100 ft | 498 kts | 33° |
| 2026-05-03 21:51 | -18.65999 | -42.57154 | 35098 ft | 490 kts | 20° |
| 2026-05-03 21:51 | -18.62850 | -42.55864 | 35102 ft | 485 kts | 15° |
| 2026-05-03 21:51 | -18.56485 | -42.53474 | 35102 ft | 485 kts | 15° |
| 2026-05-03 21:52 | -18.50109 | -42.51096 | 35098 ft | 485 kts | 15° |
| 2026-05-03 21:52 | -18.43741 | -42.48722 | 35092 ft | 486 kts | 15° |
| 2026-05-03 21:53 | -18.37367 | -42.46345 | 35088 ft | 486 kts | 15° |
| 2026-05-03 21:53 | -18.31041 | -42.43973 | 35088 ft | 486 kts | 15° |
| 2026-05-03 21:54 | -18.24668 | -42.41577 | 35083 ft | 486 kts | 15° |
| 2026-05-03 21:54 | -18.18292 | -42.39194 | 35095 ft | 485 kts | 15° |
| 2026-05-03 21:55 | -18.11919 | -42.36839 | 35097 ft | 485 kts | 15° |
| 2026-05-03 21:55 | -18.05544 | -42.34474 | 35099 ft | 486 kts | 15° |
| 2026-05-03 21:56 | -17.99174 | -42.32095 | 35095 ft | 486 kts | 15° |
| 2026-05-03 21:56 | -17.92801 | -42.29697 | 35097 ft | 486 kts | 16° |
| 2026-05-03 21:57 | -17.86458 | -42.27334 | 35104 ft | 486 kts | 15° |
| 2026-05-03 21:57 | -17.80076 | -42.24987 | 35107 ft | 485 kts | 15° |
| 2026-05-03 21:58 | -17.73689 | -42.22626 | 35112 ft | 486 kts | 15° |
| 2026-05-03 21:58 | -17.67314 | -42.20260 | 35115 ft | 486 kts | 16° |
| 2026-05-03 21:59 | -17.60980 | -42.17904 | 35123 ft | 485 kts | 16° |
| 2026-05-03 21:59 | -17.54612 | -42.15539 | 35110 ft | 485 kts | 16° |
| 2026-05-03 22:00 | -17.48241 | -42.13187 | 35113 ft | 485 kts | 15° |
| 2026-05-03 22:00 | -17.41869 | -42.10846 | 35118 ft | 485 kts | 16° |
| 2026-05-03 22:01 | -17.35502 | -42.08494 | 35117 ft | 485 kts | 16° |
| 2026-05-03 22:01 | -17.29133 | -42.06136 | 35112 ft | 485 kts | 16° |
| 2026-05-03 22:02 | -17.22764 | -42.03778 | 35110 ft | 486 kts | 16° |
| 2026-05-03 22:02 | -17.16390 | -42.01437 | 35110 ft | 486 kts | 16° |
| 2026-05-03 22:03 | -17.10012 | -41.99101 | 35109 ft | 486 kts | 16° |
| 2026-05-03 22:03 | -17.03639 | -41.96749 | 35103 ft | 486 kts | 16° |
| 2026-05-03 22:04 | -16.97251 | -41.94387 | 35105 ft | 487 kts | 16° |
| 2026-05-03 22:04 | -16.90866 | -41.92038 | 35107 ft | 487 kts | 16° |
| 2026-05-03 22:05 | -16.84474 | -41.89695 | 35105 ft | 487 kts | 16° |
| 2026-05-03 22:05 | -16.78079 | -41.87355 | 35102 ft | 487 kts | 16° |
| 2026-05-03 22:06 | -16.71691 | -41.85016 | 35104 ft | 487 kts | 16° |
| 2026-05-03 22:06 | -16.65338 | -41.82691 | 35104 ft | 487 kts | 16° |
| 2026-05-03 22:07 | -16.58944 | -41.80348 | 35093 ft | 487 kts | 16° |
| 2026-05-03 22:07 | -16.52546 | -41.78006 | 35094 ft | 487 kts | 16° |
| 2026-05-03 22:08 | -16.46142 | -41.75662 | 35105 ft | 487 kts | 16° |
| 2026-05-03 22:08 | -16.39740 | -41.73320 | 35106 ft | 487 kts | 16° |
| 2026-05-03 22:09 | -16.33384 | -41.70999 | 35098 ft | 487 kts | 17° |
| 2026-05-03 22:10 | -16.24817 | -41.67875 | 35102 ft | 487 kts | 17° |
| 2026-05-03 22:10 | -16.18451 | -41.65551 | 35106 ft | 487 kts | 17° |
| 2026-05-03 22:11 | -16.12044 | -41.63215 | 35106 ft | 487 kts | 17° |
| 2026-05-03 22:11 | -16.05635 | -41.60892 | 35109 ft | 487 kts | 17° |
| 2026-05-03 22:12 | -15.99234 | -41.58558 | 35109 ft | 487 kts | 17° |
| 2026-05-03 22:12 | -15.92879 | -41.56241 | 35109 ft | 487 kts | 17° |
| 2026-05-03 22:13 | -15.86482 | -41.53909 | 35111 ft | 487 kts | 17° |
| 2026-05-03 22:13 | -15.80082 | -41.51590 | 35109 ft | 487 kts | 17° |
| 2026-05-03 22:14 | -15.73679 | -41.49278 | 35106 ft | 486 kts | 17° |
| 2026-05-03 22:14 | -15.67284 | -41.46961 | 35106 ft | 487 kts | 17° |
| 2026-05-03 22:15 | -15.60932 | -41.44648 | 35100 ft | 486 kts | 17° |
| 2026-05-03 22:15 | -15.54545 | -41.42332 | 35104 ft | 486 kts | 17° |
| 2026-05-03 22:16 | -15.48147 | -41.40025 | 35108 ft | 486 kts | 17° |
| 2026-05-03 22:16 | -15.41751 | -41.37707 | 35110 ft | 487 kts | 17° |
| 2026-05-03 22:17 | -15.35360 | -41.35401 | 35108 ft | 486 kts | 17° |
| 2026-05-03 22:17 | -15.28963 | -41.33084 | 35109 ft | 487 kts | 17° |
| 2026-05-03 22:18 | -15.22564 | -41.30777 | 35106 ft | 487 kts | 17° |
| 2026-05-03 22:18 | -15.16160 | -41.28470 | 35110 ft | 487 kts | 17° |
| 2026-05-03 22:19 | -15.09799 | -41.26185 | 35095 ft | 487 kts | 17° |
| 2026-05-03 22:19 | -15.03398 | -41.23877 | 35097 ft | 486 kts | 17° |
| 2026-05-03 22:20 | -14.97006 | -41.21562 | 35100 ft | 486 kts | 17° |
| 2026-05-03 22:20 | -14.90610 | -41.19255 | 35091 ft | 486 kts | 17° |
| 2026-05-03 22:21 | -14.84219 | -41.16969 | 35097 ft | 486 kts | 17° |
| 2026-05-03 22:21 | -14.77832 | -41.14679 | 35089 ft | 486 kts | 17° |
| 2026-05-03 22:22 | -14.71447 | -41.12381 | 35083 ft | 486 kts | 17° |
| 2026-05-03 22:22 | -14.65104 | -41.10098 | 35079 ft | 486 kts | 17° |
| 2026-05-03 22:23 | -14.58726 | -41.07814 | 35079 ft | 485 kts | 18° |
| 2026-05-03 22:23 | -14.52345 | -41.05529 | 35072 ft | 485 kts | 18° |
| 2026-05-03 22:24 | -14.45974 | -41.03242 | 35075 ft | 485 kts | 18° |
| 2026-05-03 22:24 | -14.39597 | -41.00951 | 35065 ft | 484 kts | 18° |
| 2026-05-03 22:25 | -14.33222 | -40.98679 | 35062 ft | 484 kts | 18° |
| 2026-05-03 22:25 | -14.26885 | -40.96415 | 35062 ft | 484 kts | 18° |
| 2026-05-03 22:26 | -14.20516 | -40.94138 | 35061 ft | 484 kts | 18° |
| 2026-05-03 22:26 | -14.14144 | -40.91865 | 35071 ft | 484 kts | 18° |
| 2026-05-03 22:27 | -14.07779 | -40.89592 | 35063 ft | 483 kts | 18° |
| 2026-05-03 22:27 | -14.01427 | -40.87326 | 35065 ft | 483 kts | 18° |
| 2026-05-03 22:28 | -13.95117 | -40.85084 | 35066 ft | 482 kts | 18° |
| 2026-05-03 22:28 | -13.88770 | -40.82821 | 35062 ft | 482 kts | 18° |
| 2026-05-03 22:29 | -13.82434 | -40.80558 | 35068 ft | 482 kts | 18° |
| 2026-05-03 22:29 | -13.76098 | -40.78300 | 35066 ft | 481 kts | 18° |
| 2026-05-03 22:30 | -13.70012 | -40.75456 | 35064 ft | 482 kts | 29° |
| 2026-05-03 22:30 | -13.64228 | -40.71944 | 35061 ft | 483 kts | 30° |
| 2026-05-03 22:31 | -13.58483 | -40.68455 | 35044 ft | 484 kts | 29° |
| 2026-05-03 22:31 | -13.52656 | -40.64920 | 35043 ft | 486 kts | 29° |
| 2026-05-03 22:32 | -13.46818 | -40.61390 | 35047 ft | 487 kts | 28° |
| 2026-05-03 22:32 | -13.40976 | -40.57865 | 35048 ft | 487 kts | 29° |
| 2026-05-03 22:33 | -13.35132 | -40.54330 | 35058 ft | 487 kts | 29° |
| 2026-05-03 22:33 | -13.29291 | -40.50801 | 35063 ft | 487 kts | 29° |
| 2026-05-03 22:34 | -13.23450 | -40.47272 | 35064 ft | 487 kts | 29° |
| 2026-05-03 22:34 | -13.17612 | -40.43743 | 35062 ft | 487 kts | 28° |
| 2026-05-03 22:35 | -13.11804 | -40.40245 | 35056 ft | 487 kts | 28° |
| 2026-05-03 22:35 | -13.05981 | -40.36736 | 35062 ft | 487 kts | 29° |
| 2026-05-03 22:36 | -13.00137 | -40.33208 | 35054 ft | 487 kts | 29° |
| 2026-05-03 22:36 | -12.94295 | -40.29691 | 35054 ft | 487 kts | 29° |
| 2026-05-03 22:37 | -12.88457 | -40.26175 | 35056 ft | 487 kts | 29° |
| 2026-05-03 22:37 | -12.82611 | -40.22658 | 35047 ft | 487 kts | 29° |
| 2026-05-03 22:38 | -12.76774 | -40.19144 | 35052 ft | 486 kts | 29° |
| 2026-05-03 22:38 | -12.70936 | -40.15638 | 35044 ft | 486 kts | 29° |
| 2026-05-03 22:39 | -12.65134 | -40.12157 | 35043 ft | 486 kts | 29° |
| 2026-05-03 22:39 | -12.59301 | -40.08654 | 35041 ft | 486 kts | 29° |
| 2026-05-03 22:40 | -12.53453 | -40.05145 | 35041 ft | 486 kts | 29° |
| 2026-05-03 22:40 | -12.47608 | -40.01643 | 35041 ft | 487 kts | 29° |
| 2026-05-03 22:41 | -12.41759 | -39.98151 | 35039 ft | 487 kts | 29° |
| 2026-05-03 22:41 | -12.35915 | -39.94653 | 35036 ft | 487 kts | 28° |
| 2026-05-03 22:42 | -12.30071 | -39.91148 | 35035 ft | 487 kts | 29° |
| 2026-05-03 22:42 | -12.24213 | -39.87632 | 35034 ft | 488 kts | 29° |
| 2026-05-03 22:43 | -12.18359 | -39.84126 | 35033 ft | 488 kts | 28° |
| 2026-05-03 22:43 | -12.12493 | -39.80628 | 35033 ft | 488 kts | 28° |
| 2026-05-03 22:44 | -12.06651 | -39.77145 | 35026 ft | 490 kts | 28° |
| 2026-05-03 22:44 | -12.00759 | -39.73633 | 35024 ft | 490 kts | 28° |
| 2026-05-03 22:45 | -11.94860 | -39.70104 | 35029 ft | 491 kts | 28° |
| 2026-05-03 22:45 | -11.88962 | -39.66574 | 35041 ft | 492 kts | 28° |
| 2026-05-03 22:46 | -11.83048 | -39.63044 | 35040 ft | 492 kts | 28° |
| 2026-05-03 22:46 | -11.77132 | -39.59526 | 35040 ft | 492 kts | 28° |
| 2026-05-03 22:47 | -11.71238 | -39.56008 | 35041 ft | 491 kts | 28° |
| 2026-05-03 22:47 | -11.65324 | -39.52483 | 35041 ft | 491 kts | 28° |
| 2026-05-03 22:48 | -11.59456 | -39.48982 | 35011 ft | 492 kts | 28° |
| 2026-05-03 22:48 | -11.53534 | -39.45453 | 35041 ft | 494 kts | 28° |
| 2026-05-03 22:49 | -11.47584 | -39.41917 | 35041 ft | 496 kts | 28° |
| 2026-05-03 22:49 | -11.41624 | -39.38367 | 35038 ft | 496 kts | 28° |
| 2026-05-03 22:50 | -11.35665 | -39.34821 | 35037 ft | 496 kts | 28° |
| 2026-05-03 22:50 | -11.29693 | -39.31264 | 35040 ft | 498 kts | 28° |
| 2026-05-03 22:51 | -11.23711 | -39.27704 | 35037 ft | 498 kts | 28° |
| 2026-05-03 22:51 | -11.17721 | -39.24150 | 35039 ft | 498 kts | 28° |
| 2026-05-03 22:52 | -11.11725 | -39.20602 | 35039 ft | 498 kts | 28° |
| 2026-05-03 22:52 | -11.05774 | -39.17069 | 35034 ft | 499 kts | 28° |
| 2026-05-03 22:53 | -10.99742 | -39.13481 | 35032 ft | 499 kts | 28° |
| 2026-05-03 22:53 | -10.93780 | -39.09946 | 35036 ft | 500 kts | 28° |
| 2026-05-03 22:54 | -10.87763 | -39.06384 | 35035 ft | 500 kts | 28° |
| 2026-05-03 22:54 | -10.81746 | -39.02820 | 35028 ft | 500 kts | 28° |
| 2026-05-03 22:55 | -10.75743 | -38.99252 | 35031 ft | 500 kts | 28° |
| 2026-05-03 22:55 | -10.69763 | -38.95711 | 35036 ft | 500 kts | 28° |
| 2026-05-03 22:56 | -10.63746 | -38.92167 | 35046 ft | 500 kts | 28° |
| 2026-05-03 22:56 | -10.57722 | -38.88607 | 35038 ft | 500 kts | 28° |
| 2026-05-03 22:57 | -10.51709 | -38.85044 | 35049 ft | 499 kts | 28° |
| 2026-05-03 22:57 | -10.45706 | -38.81498 | 35055 ft | 499 kts | 28° |
| 2026-05-03 22:58 | -10.39728 | -38.77979 | 35047 ft | 499 kts | 28° |
| 2026-05-03 22:58 | -10.33724 | -38.74435 | 35050 ft | 499 kts | 28° |
| 2026-05-03 22:59 | -10.27714 | -38.70876 | 35065 ft | 499 kts | 27° |
| 2026-05-03 22:59 | -10.21708 | -38.67334 | 35064 ft | 498 kts | 27° |
| 2026-05-03 23:00 | -10.15710 | -38.63803 | 35067 ft | 498 kts | 27° |
| 2026-05-03 23:00 | -10.09768 | -38.60300 | 35065 ft | 498 kts | 27° |
| 2026-05-03 23:01 | -10.03773 | -38.56769 | 35059 ft | 498 kts | 27° |
| 2026-05-03 23:01 | -9.97792 | -38.53245 | 35060 ft | 497 kts | 27° |
| 2026-05-03 23:02 | -9.92790 | -38.50293 | 35058 ft | 497 kts | 27° |
| 2026-05-03 23:02 | -9.86804 | -38.46770 | 35059 ft | 497 kts | 27° |
| 2026-05-03 23:03 | -9.80853 | -38.43280 | 35054 ft | 497 kts | 27° |
| 2026-05-03 23:03 | -9.74867 | -38.39762 | 35062 ft | 496 kts | 27° |
| 2026-05-03 23:04 | -9.68906 | -38.36270 | 35064 ft | 494 kts | 27° |
| 2026-05-03 23:04 | -9.62963 | -38.32820 | 35042 ft | 492 kts | 27° |
| 2026-05-03 23:05 | -9.57021 | -38.29371 | 35023 ft | 491 kts | 27° |
| 2026-05-03 23:05 | -9.51092 | -38.25922 | 35035 ft | 491 kts | 27° |
| 2026-05-03 23:06 | -9.45174 | -38.22474 | 35019 ft | 490 kts | 27° |
| 2026-05-03 23:06 | -9.39272 | -38.19032 | 35032 ft | 490 kts | 27° |
| 2026-05-03 23:07 | -9.33356 | -38.15596 | 35032 ft | 490 kts | 27° |
| 2026-05-03 23:07 | -9.27472 | -38.12184 | 35034 ft | 490 kts | 27° |
| 2026-05-03 23:08 | -9.21555 | -38.08745 | 35039 ft | 491 kts | 27° |
| 2026-05-03 23:08 | -9.15630 | -38.05298 | 35041 ft | 491 kts | 27° |
| 2026-05-03 23:09 | -9.09715 | -38.01856 | 35042 ft | 491 kts | 27° |
| 2026-05-03 23:09 | -9.03799 | -37.98400 | 35045 ft | 491 kts | 27° |
| 2026-05-03 23:10 | -8.97889 | -37.94953 | 35047 ft | 491 kts | 27° |
| 2026-05-03 23:10 | -8.91977 | -37.91495 | 35045 ft | 491 kts | 27° |
| 2026-05-03 23:11 | -8.86063 | -37.88040 | 35048 ft | 491 kts | 27° |
| 2026-05-03 23:11 | -8.80143 | -37.84589 | 35048 ft | 491 kts | 27° |
| 2026-05-03 23:12 | -8.74226 | -37.81144 | 35046 ft | 491 kts | 27° |
| 2026-05-03 23:12 | -8.68306 | -37.77701 | 35046 ft | 491 kts | 27° |
| 2026-05-03 23:13 | -8.62424 | -37.74279 | 35047 ft | 490 kts | 27° |
| 2026-05-03 23:13 | -8.56516 | -37.70837 | 35043 ft | 490 kts | 27° |
| 2026-05-03 23:14 | -8.50608 | -37.67399 | 35039 ft | 491 kts | 27° |
| 2026-05-03 23:14 | -8.44685 | -37.63954 | 35039 ft | 491 kts | 27° |
| 2026-05-03 23:15 | -8.38768 | -37.60511 | 35033 ft | 490 kts | 28° |
| 2026-05-03 23:15 | -8.32860 | -37.57072 | 35032 ft | 490 kts | 28° |
| 2026-05-03 23:16 | -8.26996 | -37.53663 | 35022 ft | 490 kts | 28° |
| 2026-05-03 23:16 | -8.21090 | -37.50233 | 35034 ft | 490 kts | 28° |
| 2026-05-03 23:17 | -8.15180 | -37.46801 | 35030 ft | 490 kts | 28° |
| 2026-05-03 23:17 | -8.09262 | -37.43365 | 35032 ft | 490 kts | 28° |
| 2026-05-03 23:18 | -8.03359 | -37.39943 | 35038 ft | 490 kts | 28° |
| 2026-05-03 23:18 | -7.97451 | -37.36524 | 35039 ft | 490 kts | 28° |
| 2026-05-03 23:19 | -7.91545 | -37.33098 | 35041 ft | 490 kts | 28° |
| 2026-05-03 23:19 | -7.85668 | -37.29694 | 35042 ft | 490 kts | 28° |
| 2026-05-03 23:20 | -7.79764 | -37.26269 | 35044 ft | 490 kts | 28° |
| 2026-05-03 23:20 | -7.73855 | -37.22837 | 35046 ft | 489 kts | 28° |
| 2026-05-03 23:21 | -7.67952 | -37.19417 | 35044 ft | 490 kts | 28° |
| 2026-05-03 23:21 | -7.62037 | -37.15990 | 35044 ft | 490 kts | 28° |
| 2026-05-03 23:22 | -7.53175 | -37.10861 | 35043 ft | 490 kts | 28° |
| 2026-05-03 23:22 | -7.47264 | -37.07443 | 35024 ft | 490 kts | 28° |
| 2026-05-03 23:23 | -7.41346 | -37.04028 | 35040 ft | 490 kts | 28° |
| 2026-05-03 23:23 | -7.35430 | -37.00608 | 35024 ft | 490 kts | 28° |
| 2026-05-03 23:24 | -7.29514 | -36.97183 | 35033 ft | 491 kts | 28° |
| 2026-05-03 23:24 | -7.23588 | -36.93762 | 35029 ft | 491 kts | 28° |
| 2026-05-03 23:25 | -7.17650 | -36.90341 | 35027 ft | 491 kts | 28° |
| 2026-05-03 23:25 | -7.11755 | -36.86945 | 35020 ft | 491 kts | 28° |
| 2026-05-03 23:26 | -7.05824 | -36.83525 | 35032 ft | 491 kts | 28° |
| 2026-05-03 23:26 | -6.99895 | -36.80092 | 35026 ft | 491 kts | 28° |
| 2026-05-03 23:27 | -6.93960 | -36.76657 | 35009 ft | 492 kts | 28° |
| 2026-05-03 23:27 | -6.88018 | -36.73222 | 35018 ft | 492 kts | 28° |
| 2026-05-03 23:28 | -6.82071 | -36.69794 | 35020 ft | 493 kts | 28° |
| 2026-05-03 23:28 | -6.76131 | -36.66363 | 35002 ft | 485 kts | 28° |
| 2026-05-03 23:29 | -6.73298 | -36.64726 | 35022 ft | 467 kts | 28° |
| 2026-05-03 23:29 | -6.70515 | -36.63120 | 35009 ft | 457 kts | 28° |
| 2026-05-03 23:29 | -6.65018 | -36.59964 | 35020 ft | 454 kts | 28° |
| 2026-05-03 23:30 | -6.59333 | -36.57252 | 34421 ft | 453 kts | 17° |
| 2026-05-03 23:30 | -6.56345 | -36.56254 | 33852 ft | 451 kts | 17° |
| 2026-05-03 23:30 | -6.53373 | -36.55258 | 33277 ft | 449 kts | 17° |
| 2026-05-03 23:31 | -6.50424 | -36.54261 | 32765 ft | 446 kts | 18° |
| 2026-05-03 23:31 | -6.47489 | -36.53262 | 32206 ft | 444 kts | 18° |
| 2026-05-03 23:31 | -6.44573 | -36.52261 | 31667 ft | 442 kts | 18° |
| 2026-05-03 23:31 | -6.41674 | -36.51258 | 31138 ft | 440 kts | 19° |
| 2026-05-03 23:32 | -6.38783 | -36.50256 | 30614 ft | 439 kts | 19° |
| 2026-05-03 23:32 | -6.35899 | -36.49261 | 30094 ft | 437 kts | 19° |
| 2026-05-03 23:32 | -6.33025 | -36.48274 | 29535 ft | 435 kts | 19° |
| 2026-05-03 23:32 | -6.30175 | -36.47295 | 29044 ft | 431 kts | 19° |
| 2026-05-03 23:33 | -6.27347 | -36.46325 | 28555 ft | 427 kts | 19° |
| 2026-05-03 23:33 | -6.24580 | -36.45377 | 28083 ft | 424 kts | 19° |
| 2026-05-03 23:33 | -6.21797 | -36.44425 | 27601 ft | 421 kts | 19° |
| 2026-05-03 23:33 | -6.19033 | -36.43482 | 27119 ft | 418 kts | 20° |
| 2026-05-03 23:34 | -6.16288 | -36.42544 | 26630 ft | 415 kts | 20° |
| 2026-05-03 23:34 | -6.13560 | -36.41612 | 26132 ft | 413 kts | 20° |
| 2026-05-03 23:34 | -6.10848 | -36.40682 | 25615 ft | 411 kts | 20° |
| 2026-05-03 23:34 | -6.08153 | -36.39755 | 25224 ft | 407 kts | 20° |
| 2026-05-03 23:35 | -6.05475 | -36.38833 | 24729 ft | 405 kts | 21° |
| 2026-05-03 23:35 | -6.02826 | -36.37923 | 24371 ft | 400 kts | 21° |
| 2026-05-03 23:35 | -6.00204 | -36.37025 | 23945 ft | 397 kts | 21° |
| 2026-05-03 23:35 | -5.97606 | -36.36137 | 23537 ft | 393 kts | 21° |
| 2026-05-03 23:36 | -5.95026 | -36.35257 | 23057 ft | 390 kts | 21° |
| 2026-05-03 23:36 | -5.92544 | -36.34217 | 22598 ft | 384 kts | 33° |
| 2026-05-03 23:36 | -5.90477 | -36.32576 | 22131 ft | 377 kts | 48° |
| 2026-05-03 23:36 | -5.88901 | -36.30447 | 21156 ft | 386 kts | 58° |
| 2026-05-03 23:37 | -5.87436 | -36.28137 | 20118 ft | 399 kts | 59° |
| 2026-05-03 23:37 | -5.85939 | -36.25740 | 19065 ft | 411 kts | 59° |
| 2026-05-03 23:37 | -5.84401 | -36.23271 | 17933 ft | 423 kts | 58° |
| 2026-05-03 23:37 | -5.82819 | -36.20742 | 16889 ft | 429 kts | 58° |
| 2026-05-03 23:38 | -5.81227 | -36.18216 | 16131 ft | 427 kts | 58° |
| 2026-05-03 23:38 | -5.79642 | -36.15710 | 15461 ft | 423 kts | 58° |
| 2026-05-03 23:38 | -5.78073 | -36.13237 | 14820 ft | 418 kts | 58° |
| 2026-05-03 23:38 | -5.76510 | -36.10778 | 14200 ft | 414 kts | 57° |
| 2026-05-03 23:39 | -5.74980 | -36.08371 | 13266 ft | 404 kts | 58° |
| 2026-05-03 23:39 | -5.73481 | -36.06012 | 12003 ft | 397 kts | 58° |
| 2026-05-03 23:39 | -5.72029 | -36.03725 | 10802 ft | 390 kts | 58° |
| 2026-05-03 23:39 | -5.70584 | -36.01445 | 9585 ft | 383 kts | 58° |
| 2026-05-03 23:40 | -5.69169 | -35.99204 | 8259 ft | 377 kts | 59° |
| 2026-05-03 23:40 | -5.67778 | -35.96997 | 6987 ft | 371 kts | 59° |
| 2026-05-03 23:40 | -5.66402 | -35.94818 | 5688 ft | 366 kts | 60° |
| 2026-05-03 23:40 | -5.65050 | -35.92683 | 4746 ft | 353 kts | 60° |
| 2026-05-03 23:41 | -5.63887 | -35.90672 | 4819 ft | 306 kts | 71° |
| 2026-05-03 23:41 | -5.63387 | -35.88747 | 5002 ft | 273 kts | 88° |
| 2026-05-03 23:41 | -5.63488 | -35.86891 | 4903 ft | 263 kts | 105° |
| 2026-05-03 23:41 | -5.64099 | -35.85188 | 4788 ft | 259 kts | 115° |
| 2026-05-03 23:42 | -5.64801 | -35.83518 | 4668 ft | 259 kts | 115° |
| 2026-05-03 23:42 | -5.65492 | -35.81850 | 4543 ft | 258 kts | 114° |
| 2026-05-03 23:42 | -5.66175 | -35.80188 | 4427 ft | 257 kts | 114° |
| 2026-05-03 23:42 | -5.66854 | -35.78532 | 4301 ft | 257 kts | 114° |
| 2026-05-03 23:43 | -5.67529 | -35.76874 | 4176 ft | 257 kts | 114° |
| 2026-05-03 23:43 | -5.68193 | -35.75210 | 4050 ft | 256 kts | 114° |
| 2026-05-03 23:43 | -5.68848 | -35.73554 | 3933 ft | 255 kts | 114° |
| 2026-05-03 23:43 | -5.69501 | -35.71899 | 3812 ft | 255 kts | 114° |
| 2026-05-03 23:44 | -5.70157 | -35.70241 | 3691 ft | 255 kts | 114° |
| 2026-05-03 23:44 | -5.70813 | -35.68586 | 3571 ft | 254 kts | 114° |
| 2026-05-03 23:44 | -5.71452 | -35.66974 | 3449 ft | 246 kts | 114° |
| 2026-05-03 23:44 | -5.72056 | -35.65443 | 3476 ft | 226 kts | 114° |
| 2026-05-03 23:45 | -5.72532 | -35.63992 | 3477 ft | 216 kts | 104° |
| 2026-05-03 23:45 | -5.72772 | -35.62506 | 3409 ft | 216 kts | 102° |
| 2026-05-03 23:45 | -5.73011 | -35.61017 | 3287 ft | 215 kts | 103° |
| 2026-05-03 23:45 | -5.73245 | -35.59568 | 3157 ft | 206 kts | 103° |
| 2026-05-03 23:46 | -5.73468 | -35.58194 | 3050 ft | 192 kts | 103° |
| 2026-05-03 23:46 | -5.73676 | -35.56921 | 2905 ft | 179 kts | 103° |
| 2026-05-03 23:46 | -5.73870 | -35.55732 | 2790 ft | 167 kts | 103° |
| 2026-05-03 23:46 | -5.74051 | -35.54620 | 2684 ft | 156 kts | 104° |
| 2026-05-03 23:47 | -5.74221 | -35.53581 | 2590 ft | 146 kts | 104° |
| 2026-05-03 23:47 | -5.74382 | -35.52594 | 2493 ft | 141 kts | 104° |
| 2026-05-03 23:47 | -5.74540 | -35.51632 | 2407 ft | 139 kts | 104° |
| 2026-05-03 23:47 | -5.74697 | -35.50675 | 2316 ft | 139 kts | 104° |
| 2026-05-03 23:48 | -5.74854 | -35.49713 | 2228 ft | 139 kts | 104° |
| 2026-05-03 23:48 | -5.75009 | -35.48759 | 2115 ft | 137 kts | 104° |
| 2026-05-03 23:48 | -5.75163 | -35.47817 | 2075 ft | 137 kts | 104° |
| 2026-05-03 23:48 | -5.75315 | -35.46882 | 1952 ft | 135 kts | 104° |
| 2026-05-03 23:49 | -5.75468 | -35.45948 | 1801 ft | 135 kts | 104° |
| 2026-05-03 23:49 | -5.75619 | -35.45019 | 1636 ft | 135 kts | 104° |
| 2026-05-03 23:49 | -5.75771 | -35.44088 | 1460 ft | 135 kts | 103° |
| 2026-05-03 23:49 | -5.75923 | -35.43153 | 1284 ft | 136 kts | 103° |
| 2026-05-03 23:50 | -5.76073 | -35.42237 | 1121 ft | 135 kts | 103° |
| 2026-05-03 23:50 | -5.76175 | -35.41611 | 1009 ft | 135 kts | 102° |
| 2026-05-03 23:50 | -5.76380 | -35.40353 | 779 ft | 140 kts | 103° |
| 2026-05-03 23:50 | -5.76538 | -35.39385 | 602 ft | 141 kts | 102° |
| 2026-05-03 23:51 | -5.76697 | -35.38404 | 414 ft | 142 kts | 101° |
| 2026-05-03 23:51 | -5.76857 | -35.37431 | 290 ft | 138 kts | 103° |
| 2026-05-03 23:51 | -5.76967 | -35.36846 | 275 ft | 111 kts | 98° |
| 2026-05-03 23:51 | -5.77027 | -35.36337 | 272 ft | 59 kts | 88° |
| 2026-05-03 23:52 | -5.76983 | -35.36086 | 273 ft | 16 kts | 68° |
| 2026-05-03 23:52 | -5.76964 | -35.36047 | 271 ft | 4 kts | 63° |
| 2026-05-03 23:52 | -5.76949 | -35.36028 | 271 ft | 4 kts | 34° |
| 2026-05-03 23:52 | -5.76903 | -35.36056 | 271 ft | 9 kts | 296° |
| 2026-05-03 23:53 | -5.76886 | -35.36145 | 271 ft | 17 kts | 279° |
| 2026-05-03 23:53 | -5.76864 | -35.36290 | 272 ft | 25 kts | 279° |
| 2026-05-03 23:53 | -5.76833 | -35.36474 | 273 ft | 28 kts | 279° |
| 2026-05-03 23:53 | -5.76801 | -35.36670 | 274 ft | 29 kts | 279° |
| 2026-05-03 23:54 | -5.76750 | -35.36831 | 274 ft | 18 kts | 322° |
| 2026-05-03 23:54 | -5.76629 | -35.36844 | 277 ft | 18 kts | 350° |
| 2026-05-03 23:54 | -5.76571 | -35.36942 | 275 ft | 18 kts | 280° |
| 2026-05-03 23:54 | -5.76548 | -35.37054 | 275 ft | 12 kts | 284° |
| 2026-05-03 23:55 | -5.76539 | -35.37123 | 275 ft | 8 kts | 279° |
| 2026-05-03 23:55 | -5.76500 | -35.37140 | 275 ft | 6 kts | 10° |
| 2026-05-03 23:55 | -5.76471 | -35.37135 | 275 ft | 0 kts | 10° |